Time;durP1;ratioP1;P1;durP2;ratioP2;P2;SDS_P1;SDS_P2;PMS_P1;PMS_P2;Temp;Humidity;BMP_temperature;BMP_pressure;BME280_temperature;BME280_humidity;BME280_pressure;Samples;Min_cycle;Max_cycle;Signal;HPM_P1;HPM_P2
2022/08/13 00:01:26;;;;;;;0.70;0.70;;;25.80;44.20;;;;;;5042479;28;20349;-59
2022/08/13 00:04:00;;;;;;;0.65;0.65;;;25.80;44.20;;;;;;5047040;28;20396;-59
2022/08/13 00:07:03;;;;;;;0.88;0.88;;;25.80;44.20;;;;;;5046846;28;20049;-59
2022/08/13 00:09:21;;;;;;;0.80;0.80;;;25.80;44.20;;;;;;5046875;28;20280;-59
2022/08/13 00:15:09;;;;;;;1.45;0.73;;;25.80;44.20;;;;;;5047435;28;20448;-59
2022/08/13 00:17:41;;;;;;;0.80;0.60;;;25.80;44.30;;;;;;5045973;28;20053;-59
2022/08/13 00:20:32;;;;;;;0.80;0.80;;;25.80;44.30;;;;;;5046672;28;20084;-59
2022/08/13 00:23:02;;;;;;;0.68;0.68;;;25.70;44.20;;;;;;5046961;28;20048;-59
2022/08/13 00:25:50;;;;;;;0.70;0.70;;;25.80;44.30;;;;;;5046763;28;20141;-59
2022/08/13 00:28:25;;;;;;;0.77;0.77;;;25.70;44.20;;;;;;5046810;28;20128;-59
2022/08/13 00:30:53;;;;;;;1.13;0.88;;;25.70;44.30;;;;;;5047143;28;20106;-59
2022/08/13 00:33:22;;;;;;;0.75;0.75;;;25.80;44.40;;;;;;5041723;28;20095;-59
2022/08/13 00:36:11;;;;;;;0.52;0.52;;;25.70;44.30;;;;;;5046665;28;20122;-59
2022/08/13 00:38:38;;;;;;;0.75;0.75;;;25.70;44.30;;;;;;5046162;28;20051;-59
2022/08/13 00:41:07;;;;;;;0.70;0.70;;;25.70;44.40;;;;;;5046422;28;20057;-60
2022/08/13 00:43:46;;;;;;;0.70;0.70;;;25.70;44.40;;;;;;5044709;28;20052;-61
2022/08/13 00:46:14;;;;;;;1.02;0.80;;;25.70;44.40;;;;;;5045848;28;20547;-60
2022/08/13 00:48:43;;;;;;;0.52;0.52;;;25.70;44.40;;;;;;5046076;28;20072;-59
2022/08/13 00:51:21;;;;;;;0.65;0.65;;;25.70;45.00;;;;;;5046729;28;20148;-59
2022/08/13 00:54:15;;;;;;;0.60;0.60;;;25.70;44.40;;;;;;5044617;28;20512;-59
2022/08/13 00:56:43;;;;;;;0.80;0.80;;;25.70;44.50;;;;;;5046128;28;20098;-59
2022/08/13 00:59:13;;;;;;;1.23;0.60;;;25.70;44.40;;;;;;5046069;28;20118;-59
2022/08/13 01:01:46;;;;;;;1.00;1.00;;;25.70;44.40;;;;;;5045857;28;20111;-59
2022/08/13 01:04:21;;;;;;;0.55;0.55;;;25.70;44.50;;;;;;5039973;28;20045;-59
2022/08/13 01:06:55;;;;;;;0.75;0.75;;;25.70;44.50;;;;;;5044527;28;20103;-59
2022/08/13 01:09:29;;;;;;;;;;;25.70;44.50;;;;;;5046232;28;20452;-59
2022/08/13 01:12:19;;;;;;;0.80;0.80;;;25.70;44.50;;;;;;5046032;28;19927;-59
2022/08/13 01:14:57;;;;;;;0.60;0.60;;;25.70;44.50;;;;;;5046134;28;20205;-59
2022/08/13 01:17:28;;;;;;;0.63;0.63;;;25.70;44.50;;;;;;5045565;28;20047;-59
2022/08/13 01:20:16;;;;;;;0.90;0.90;;;25.70;44.50;;;;;;5045706;28;20045;-59
2022/08/13 01:23:04;;;;;;;0.65;0.60;;;25.70;44.50;;;;;;5045376;28;20621;-59
2022/08/13 01:25:36;;;;;;;0.77;0.77;;;25.70;44.50;;;;;;5045981;28;20069;-63
2022/08/13 01:28:22;;;;;;;0.70;0.70;;;25.70;44.60;;;;;;5044833;28;20080;-59
2022/08/13 01:30:51;;;;;;;0.70;0.70;;;25.70;44.50;;;;;;5045127;28;20041;-59
2022/08/13 01:33:21;;;;;;;0.85;0.85;;;25.70;44.60;;;;;;5045481;28;20049;-59
2022/08/13 01:35:52;;;;;;;0.70;0.70;;;25.70;44.60;;;;;;5041093;28;20048;-59
2022/08/13 01:38:22;;;;;;;0.83;0.83;;;25.70;44.60;;;;;;5045035;28;20460;-59
2022/08/13 01:40:55;;;;;;;0.93;0.93;;;25.70;44.60;;;;;;5045485;28;20719;-59
2022/08/13 01:43:28;;;;;;;0.80;0.80;;;25.70;44.60;;;;;;5043858;28;20045;-59
2022/08/13 01:45:57;;;;;;;0.45;0.45;;;25.70;44.60;;;;;;5045233;28;20048;-59
2022/08/13 01:51:32;;;;;;;0.98;0.88;;;25.70;44.60;;;;;;5044893;28;20045;-59
2022/08/13 01:54:11;;;;;;;0.82;0.82;;;25.70;44.70;;;;;;5045173;28;20099;-59
2022/08/13 01:57:01;;;;;;;0.90;0.90;;;25.70;44.70;;;;;;5044389;28;20606;-59
2022/08/13 01:59:30;;;;;;;1.20;0.80;;;25.70;44.70;;;;;;5045576;28;20391;-59
2022/08/13 02:02:17;;;;;;;0.80;0.80;;;25.70;44.70;;;;;;5030496;28;20313;-59
2022/08/13 02:05:05;;;;;;;0.60;0.60;;;25.70;44.70;;;;;;5043796;28;20072;-59
2022/08/13 02:07:39;;;;;;;0.98;0.98;;;25.70;44.70;;;;;;5039652;28;20143;-59
2022/08/13 02:10:26;;;;;;;1.13;0.98;;;25.70;44.70;;;;;;5045008;28;20048;-59
2022/08/13 02:12:54;;;;;;;0.73;0.73;;;25.70;44.70;;;;;;5044672;28;20056;-59
2022/08/13 02:15:23;;;;;;;0.65;0.65;;;25.70;44.70;;;;;;5045064;28;20163;-59
2022/08/13 02:18:17;;;;;;;0.70;0.70;;;25.70;44.70;;;;;;5045345;28;20323;-59
2022/08/13 02:20:58;;;;;;;0.60;0.60;;;25.70;44.70;;;;;;5044742;28;20049;-59
2022/08/13 02:23:31;;;;;;;0.80;0.80;;;25.70;44.70;;;;;;5044810;28;20437;-59
2022/08/13 02:26:19;;;;;;;0.73;0.73;;;25.70;44.70;;;;;;5044796;28;20413;-59
2022/08/13 02:28:54;;;;;;;0.93;0.93;;;25.70;44.80;;;;;;5044839;28;20060;-59
2022/08/13 02:31:22;;;;;;;0.60;0.60;;;25.70;44.80;;;;;;5045130;28;20057;-59
2022/08/13 02:34:11;;;;;;;0.82;0.80;;;25.70;44.80;;;;;;5044799;28;20139;-59
2022/08/13 02:36:47;;;;;;;0.88;0.88;;;25.70;44.80;;;;;;5044691;28;20041;-59
2022/08/13 02:39:35;;;;;;;1.30;1.20;;;25.70;44.80;;;;;;5040465;28;20472;-59
2022/08/13 02:42:10;;;;;;;1.20;0.90;;;25.70;44.80;;;;;;5044606;28;20049;-59
2022/08/13 02:44:48;;;;;;;3.17;0.90;;;25.70;44.80;;;;;;5044298;28;20044;-59
2022/08/13 02:47:20;;;;;;;0.88;0.77;;;25.60;44.70;;;;;;5044883;28;20049;-59
2022/08/13 02:50:00;;;;;;;1.23;0.70;;;25.70;44.90;;;;;;5043274;28;20080;-59
2022/08/13 02:52:29;;;;;;;1.02;0.93;;;25.70;44.80;;;;;;5044644;28;20081;-61
2022/08/13 02:54:57;;;;;;;0.75;0.75;;;25.70;44.90;;;;;;5043114;28;20099;-59
2022/08/13 02:57:24;;;;;;;0.60;0.60;;;25.60;44.80;;;;;;5044622;28;20124;-59
2022/08/13 02:59:54;;;;;;;0.80;0.80;;;25.70;44.80;;;;;;5044527;28;20376;-59
2022/08/13 03:02:37;;;;;;;0.73;0.70;;;25.70;44.80;;;;;;5044188;28;20068;-59
2022/08/13 03:05:08;;;;;;;0.80;0.80;;;25.70;44.80;;;;;;5044457;28;20041;-59
2022/08/13 03:07:41;;;;;;;0.60;0.60;;;25.70;44.80;;;;;;5043334;28;20132;-59
2022/08/13 03:10:21;;;;;;;0.75;0.75;;;25.70;44.80;;;;;;5042090;28;20406;-59
2022/08/13 03:13:20;;;;;;;0.80;0.80;;;25.70;44.80;;;;;;5046896;28;20373;-59
2022/08/13 03:15:53;;;;;;;0.70;0.70;;;25.70;44.80;;;;;;5047372;28;20136;-59
2022/08/13 03:18:30;;;;;;;;;;;25.70;44.80;;;;;;5048179;28;20075;-59
2022/08/13 03:21:24;;;;;;;0.75;0.75;;;25.70;44.80;;;;;;5047694;28;20019;-59
2022/08/13 03:24:18;;;;;;;0.75;0.75;;;25.70;44.80;;;;;;5048204;28;20136;-59
2022/08/13 03:27:00;;;;;;;1.25;0.95;;;25.70;44.80;;;;;;5046504;28;20405;-59
2022/08/13 03:29:28;;;;;;;0.98;0.95;;;25.70;44.80;;;;;;5047691;28;20049;-59
2022/08/13 03:32:17;;;;;;;2.22;0.85;;;25.70;44.80;;;;;;5047778;28;20053;-59
2022/08/13 03:34:59;;;;;;;0.60;0.60;;;25.70;44.80;;;;;;5047105;28;20126;-61
2022/08/13 03:37:38;;;;;;;0.90;0.90;;;25.70;44.80;;;;;;5047551;28;20044;-59
2022/08/13 03:40:09;;;;;;;0.70;0.70;;;25.70;44.80;;;;;;5048373;28;20056;-59
2022/08/13 03:42:41;;;;;;;0.70;0.70;;;25.70;44.80;;;;;;5042721;28;20055;-59
2022/08/13 03:45:24;;;;;;;1.08;0.63;;;25.70;44.80;;;;;;5047497;28;20150;-59
2022/08/13 03:47:55;;;;;;;0.63;0.63;;;25.70;44.80;;;;;;5047344;28;20045;-59
2022/08/13 03:50:23;;;;;;;0.77;0.77;;;25.70;44.80;;;;;;5047553;28;20060;-59
2022/08/13 03:52:51;;;;;;;0.60;0.60;;;25.70;44.80;;;;;;5046954;28;20124;-59
2022/08/13 03:55:21;;;;;;;1.10;0.90;;;25.70;44.80;;;;;;5047418;28;20135;-59
2022/08/13 03:57:50;;;;;;;0.88;0.88;;;25.70;44.80;;;;;;5047282;28;20067;-59
2022/08/13 04:00:31;;;;;;;0.80;0.80;;;25.70;44.80;;;;;;5046922;28;20282;-59
2022/08/13 04:03:15;;;;;;;0.70;0.70;;;25.70;44.80;;;;;;5045878;28;20060;-59
2022/08/13 04:05:43;;;;;;;0.90;0.90;;;25.70;44.80;;;;;;5045882;28;20099;-59
2022/08/13 04:08:22;;;;;;;2.53;1.15;;;25.70;44.80;;;;;;5045721;28;20081;-59
2022/08/13 04:10:50;;;;;;;0.88;0.85;;;25.70;44.80;;;;;;5047170;28;20056;-59
2022/08/13 04:13:21;;;;;;;0.65;0.65;;;25.70;44.80;;;;;;5042147;28;20079;-59
2022/08/13 04:16:20;;;;;;;0.70;0.70;;;25.70;44.80;;;;;;5047472;28;20049;-59
2022/08/13 04:18:56;;;;;;;2.25;0.80;;;25.70;44.80;;;;;;5045634;28;20102;-59
2022/08/13 04:21:28;;;;;;;0.80;0.80;;;25.70;44.80;;;;;;5046979;28;20049;-59
2022/08/13 04:23:57;;;;;;;0.70;0.60;;;25.70;44.80;;;;;;5046448;28;20186;-59
2022/08/13 04:26:26;;;;;;;1.05;0.98;;;25.70;44.90;;;;;;5045233;28;20142;-59
2022/08/13 04:29:01;;;;;;;0.80;0.80;;;25.70;44.80;;;;;;5045490;28;20073;-59
2022/08/13 04:31:30;;;;;;;0.65;0.65;;;25.70;44.80;;;;;;5046994;28;20060;-59
2022/08/13 04:34:15;;;;;;;0.70;0.70;;;25.70;44.80;;;;;;5046418;28;20053;-59
2022/08/13 04:37:03;;;;;;;1.02;1.00;;;25.70;44.80;;;;;;5046724;28;20140;-59
2022/08/13 04:39:30;;;;;;;0.93;0.85;;;25.70;44.80;;;;;;5046768;28;20295;-59
2022/08/13 04:42:18;;;;;;;0.85;0.70;;;25.70;44.80;;;;;;5045997;28;20099;-59
2022/08/13 04:44:59;;;;;;;0.68;0.68;;;25.70;44.80;;;;;;5041882;28;20087;-59
2022/08/13 04:47:30;;;;;;;0.70;0.70;;;25.70;44.80;;;;;;5045792;28;20509;-59
2022/08/13 04:49:57;;;;;;;0.60;0.60;;;25.70;44.80;;;;;;5046197;28;20499;-59
2022/08/13 04:52:25;;;;;;;0.60;0.60;;;25.70;44.80;;;;;;5045983;28;20049;-59
2022/08/13 04:55:04;;;;;;;0.70;0.70;;;25.80;44.80;;;;;;5045928;28;20041;-59
2022/08/13 04:57:41;;;;;;;0.70;0.70;;;25.80;44.80;;;;;;5046117;28;20049;-59
2022/08/13 05:00:32;;;;;;;0.60;0.60;;;25.80;44.80;;;;;;5046157;28;20048;-59
2022/08/13 05:03:12;;;;;;;1.13;1.02;;;25.80;44.70;;;;;;5046254;28;20502;-59
2022/08/13 05:05:40;;;;;;;0.80;0.80;;;25.80;44.60;;;;;;5044786;28;20253;-59
2022/08/13 05:08:10;;;;;;;1.02;0.93;;;25.80;44.70;;;;;;5046115;28;20076;-59
2022/08/13 05:10:39;;;;;;;0.93;0.93;;;25.80;44.80;;;;;;5046203;28;20135;-59
2022/08/13 05:13:23;;;;;;;1.10;1.10;;;25.80;44.90;;;;;;5045668;28;20044;-59
2022/08/13 05:15:54;;;;;;;0.93;0.82;;;25.70;45.00;;;;;;5042835;28;20049;-59
2022/08/13 05:18:28;;;;;;;1.02;1.02;;;25.70;45.30;;;;;;5043937;28;20049;-59
2022/08/13 05:21:00;;;;;;;1.02;1.02;;;25.50;45.50;;;;;;5045185;28;20049;-59
2022/08/13 05:23:34;;;;;;;3.15;1.10;;;25.40;45.80;;;;;;5045848;28;20048;-59
2022/08/13 05:26:25;;;;;;;1.55;1.17;;;25.20;46.20;;;;;;5046052;28;20144;-59
2022/08/13 05:29:05;;;;;;;1.45;1.35;;;25.00;46.70;;;;;;5045276;28;20136;-58
2022/08/13 05:31:34;;;;;;;1.35;1.30;;;24.70;47.30;;;;;;5045213;28;20103;-59
2022/08/13 05:34:23;;;;;;;1.15;1.08;;;24.50;47.80;;;;;;5045089;28;20513;-59
2022/08/13 05:36:52;;;;;;;1.10;1.05;;;24.20;48.50;;;;;;5046167;28;20168;-59
2022/08/13 05:39:40;;;;;;;1.13;1.13;;;23.90;48.80;;;;;;5045626;28;20139;-58
2022/08/13 05:42:16;;;;;;;1.00;1.00;;;23.50;48.90;;;;;;5044634;28;20056;-59
2022/08/13 05:44:47;;;;;;;1.48;1.35;;;23.20;48.90;;;;;;5045038;28;20102;-59
2022/08/13 05:47:15;;;;;;;2.00;1.50;;;22.90;49.00;;;;;;5042147;28;20095;-58
2022/08/13 05:49:51;;;;;;;1.58;1.48;;;22.70;49.10;;;;;;5043941;28;20049;-58
2022/08/13 05:52:25;;;;;;;1.60;1.50;;;22.30;49.20;;;;;;5044430;28;20056;-59
2022/08/13 05:55:11;;;;;;;1.40;1.30;;;22.00;49.40;;;;;;5045081;28;20048;-59
2022/08/13 05:57:58;;;;;;;2.30;1.83;;;21.80;49.70;;;;;;5045472;28;20524;-60
2022/08/13 06:03:35;;;;;;;2.00;1.80;;;21.30;50.90;;;;;;5044759;28;20071;-58
2022/08/13 06:06:22;;;;;;;1.95;1.60;;;21.10;51.10;;;;;;5044120;28;20525;-59
2022/08/13 06:09:01;;;;;;;1.70;1.52;;;20.90;51.50;;;;;;5045299;28;20122;-59
2022/08/13 06:11:38;;;;;;;1.85;1.70;;;20.80;51.90;;;;;;5045194;28;20323;-59
2022/08/13 06:14:25;;;;;;;1.90;1.80;;;20.70;53.00;;;;;;5044633;28;20051;-59
2022/08/13 06:16:59;;;;;;;1.75;1.65;;;20.60;52.90;;;;;;5044050;28;20512;-59
2022/08/13 06:19:28;;;;;;;2.13;1.70;;;20.50;52.80;;;;;;5040547;28;20045;-58
2022/08/13 06:22:00;;;;;;;;;;;20.50;52.60;;;;;;5045501;28;20056;-59
2022/08/13 06:24:35;;;;;;;1.80;1.70;;;20.40;52.70;;;;;;5044815;28;19947;-59
2022/08/13 06:27:18;;;;;;;2.13;1.90;;;20.30;52.70;;;;;;5045083;28;20056;-59
2022/08/13 06:29:47;;;;;;;1.90;1.80;;;20.20;53.20;;;;;;5044734;28;20079;-58
2022/08/13 06:32:20;;;;;;;2.25;2.05;;;20.10;53.10;;;;;;5044937;28;20102;-58
2022/08/13 06:35:08;;;;;;;1.95;1.83;;;20.10;53.10;;;;;;5043465;28;20064;-59
2022/08/13 06:37:41;;;;;;;3.88;1.80;;;20.00;53.50;;;;;;5043910;28;20079;-59
2022/08/13 06:40:22;;;;;;;1.67;1.58;;;20.00;53.30;;;;;;5045158;28;20111;-59
2022/08/13 06:43:05;;;;;;;2.70;1.75;;;19.90;53.60;;;;;;5044385;28;20049;-59
2022/08/13 06:45:33;;;;;;;2.53;2.05;;;19.90;53.70;;;;;;5047721;28;20048;-58
2022/08/13 06:48:02;;;;;;;2.35;2.15;;;19.90;53.50;;;;;;5049024;28;20055;-59
2022/08/13 06:50:34;;;;;;;1.77;1.67;;;19.80;53.50;;;;;;5046288;28;20864;-59
2022/08/13 06:53:13;;;;;;;2.25;1.80;;;19.80;54.10;;;;;;5048808;28;20049;-59
2022/08/13 06:56:03;;;;;;;2.55;2.35;;;19.70;53.60;;;;;;5046912;28;20102;-59
2022/08/13 06:58:52;;;;;;;2.08;1.98;;;19.70;53.80;;;;;;5048929;28;20068;-59
2022/08/13 07:01:27;;;;;;;2.00;1.90;;;19.70;53.80;;;;;;5048138;28;20296;-59
2022/08/13 07:04:18;;;;;;;1.85;1.75;;;19.70;53.70;;;;;;5047062;28;20114;-59
2022/08/13 07:06:57;;;;;;;1.90;1.80;;;19.60;53.90;;;;;;5048077;28;20056;-59
2022/08/13 07:09:26;;;;;;;2.78;2.28;;;19.60;55.10;;;;;;5047584;28;20037;-59
2022/08/13 07:12:12;;;;;;;2.00;1.90;;;19.60;54.90;;;;;;5048472;28;20099;-58
2022/08/13 07:14:44;;;;;;;2.47;1.90;;;19.60;54.80;;;;;;5047538;28;20053;-59
2022/08/13 07:17:14;;;;;;;3.58;1.77;;;19.60;54.80;;;;;;5048075;28;20580;-59
2022/08/13 07:19:42;;;;;;;2.53;1.75;;;19.60;54.10;;;;;;5046653;28;20045;-59
2022/08/13 07:22:29;;;;;;;2.17;2.00;;;19.60;54.00;;;;;;5043354;28;20132;-59
2022/08/13 07:25:17;;;;;;;1.80;1.70;;;19.50;54.30;;;;;;5047651;28;20076;-59
2022/08/13 07:27:48;;;;;;;1.83;1.73;;;19.50;54.50;;;;;;5047862;28;20118;-59
2022/08/13 07:30:20;;;;;;;2.22;1.67;;;19.50;54.60;;;;;;5046524;28;20045;-59
2022/08/13 07:32:52;;;;;;;1.88;1.77;;;19.50;54.70;;;;;;5047520;28;20059;-59
2022/08/13 07:35:23;;;;;;;;;;;19.50;54.90;;;;;;5047998;28;20099;-59
2022/08/13 07:37:52;;;;;;;2.70;2.38;;;19.50;54.50;;;;;;5047282;28;19927;-59
2022/08/13 07:40:20;;;;;;;2.20;2.00;;;19.50;54.60;;;;;;5046533;28;20045;-59
2022/08/13 07:42:49;;;;;;;1.90;1.70;;;19.40;54.70;;;;;;5047783;28;20118;-59
2022/08/13 07:45:27;;;;;;;1.85;1.75;;;19.40;54.70;;;;;;5047211;28;20506;-59
2022/08/13 07:48:15;;;;;;;3.80;1.95;;;19.30;54.30;;;;;;5047440;28;20052;-59
2022/08/13 07:51:04;;;;;;;1.90;1.80;;;19.30;55.10;;;;;;5047231;28;20135;-59
2022/08/13 07:53:39;;;;;;;2.33;2.13;;;19.30;55.20;;;;;;5046168;28;20048;-59
2022/08/13 07:56:28;;;;;;;2.15;1.77;;;19.30;55.30;;;;;;5043336;28;20067;-59
2022/08/13 07:59:12;;;;;;;2.05;1.90;;;19.30;55.00;;;;;;5047610;28;20048;-59
2022/08/13 08:01:50;;;;;;;4.88;2.03;;;19.20;55.70;;;;;;5047182;28;20052;-59
2022/08/13 08:04:37;;;;;;;2.00;1.90;;;19.20;55.30;;;;;;5047467;28;20487;-59
2022/08/13 08:07:11;;;;;;;2.03;1.92;;;19.20;55.20;;;;;;5047287;28;20485;-59
2022/08/13 08:09:39;;;;;;;2.92;2.13;;;19.20;55.50;;;;;;5047407;28;20068;-59
2022/08/13 08:14:57;;;;;;;2.22;1.88;;;19.10;55.20;;;;;;5039220;28;20041;-59
2022/08/13 08:17:27;;;;;;;2.50;1.90;;;19.10;55.60;;;;;;5047393;28;20594;-59
2022/08/13 08:20:23;;;;;;;1.83;1.73;;;19.00;55.20;;;;;;5047288;28;20041;-59
2022/08/13 08:23:11;;;;;;;2.40;2.20;;;19.00;56.10;;;;;;5060805;28;20052;-59
2022/08/13 08:26:00;;;;;;;2.20;2.00;;;19.00;56.00;;;;;;5060941;28;20094;-59
2022/08/13 08:28:31;;;;;;;2.97;2.25;;;19.00;55.70;;;;;;5048391;28;20269;-59
2022/08/13 08:31:07;;;;;;;2.03;1.83;;;19.00;56.40;;;;;;5047622;28;20045;-59
2022/08/13 08:33:56;;;;;;;1.98;1.75;;;18.90;56.50;;;;;;5050557;28;20049;-59
2022/08/13 08:36:25;;;;;;;2.17;2.08;;;18.90;56.10;;;;;;5035144;28;20490;-60
2022/08/13 08:45:02;;;;;;;2.47;2.10;;;18.80;56.50;;;;;;5037125;28;20048;-59
2022/08/13 08:47:37;;;;;;;2.38;1.77;;;18.70;57.30;;;;;;5048225;28;20053;-59
2022/08/13 08:50:16;;;;;;;2.20;2.00;;;18.70;56.50;;;;;;5038456;28;20049;-59
2022/08/13 08:56:04;;;;;;;2.20;2.00;;;18.50;56.70;;;;;;5057345;28;20048;-59
2022/08/13 08:58:41;;;;;;;;;;;18.40;56.70;;;;;;5047053;28;20049;-59
2022/08/13 09:01:13;;;;;;;2.25;2.05;;;18.40;56.70;;;;;;5042721;28;19982;-59
2022/08/13 09:03:42;;;;;;;2.70;2.50;;;18.40;57.40;;;;;;5039398;28;20075;-59
2022/08/13 09:06:26;;;;;;;2.90;2.47;;;18.40;57.20;;;;;;5043980;28;20041;-59
2022/08/13 09:09:13;;;;;;;2.55;1.95;;;18.40;57.50;;;;;;5027839;28;20498;-59
2022/08/13 09:11:46;;;;;;;1.65;1.55;;;18.40;57.70;;;;;;5038329;28;20507;-59
2022/08/13 09:14:24;;;;;;;1.90;1.80;;;18.50;57.20;;;;;;5033065;28;20045;-59
2022/08/13 09:16:51;;;;;;;;;;;18.50;57.00;;;;;;5046602;28;20118;-59
2022/08/13 09:19:19;;;;;;;2.42;2.00;;;18.50;57.00;;;;;;5046072;28;20367;-59
2022/08/13 09:22:00;;;;;;;2.22;2.10;;;18.50;56.80;;;;;;5045109;28;20357;-59
2022/08/13 09:24:28;;;;;;;2.30;2.17;;;18.50;57.50;;;;;;5045779;28;20457;-59
2022/08/13 09:26:56;;;;;;;2.05;1.92;;;18.50;57.30;;;;;;5045751;28;20138;-59
2022/08/13 09:29:26;;;;;;;2.25;1.92;;;18.50;57.10;;;;;;5040059;28;20045;-59
2022/08/13 09:31:58;;;;;;;4.85;1.90;;;18.50;56.90;;;;;;5045835;28;20055;-60
2022/08/13 09:34:28;;;;;;;2.10;1.90;;;18.50;57.50;;;;;;5045679;28;20128;-59
2022/08/13 09:36:57;;;;;;;2.03;1.88;;;18.50;57.50;;;;;;5044576;28;20057;-59
2022/08/13 09:39:57;;;;;;;2.25;2.05;;;18.50;56.90;;;;;;5045123;28;20222;-59
2022/08/13 09:42:28;;;;;;;1.88;1.77;;;18.50;56.60;;;;;;5044330;28;20596;-59
2022/08/13 09:44:58;;;;;;;2.33;2.13;;;18.50;57.20;;;;;;5045286;28;20398;-59
2022/08/13 09:47:26;;;;;;;;;;;18.50;56.90;;;;;;5044735;28;20049;-59
2022/08/13 09:50:13;;;;;;;4.22;2.25;;;18.50;56.20;;;;;;5045394;28;19960;-59
2022/08/13 09:52:43;;;;;;;2.70;1.92;;;18.40;57.30;;;;;;5045488;28;20494;-59
2022/08/13 09:55:11;;;;;;;2.20;2.10;;;18.40;56.90;;;;;;5044271;28;20226;-59
2022/08/13 09:57:59;;;;;;;3.03;2.70;;;18.40;57.00;;;;;;5044777;28;20462;-59
2022/08/13 10:00:28;;;;;;;2.15;1.83;;;18.40;58.50;;;;;;5043815;28;20490;-59
2022/08/13 10:02:59;;;;;;;2.58;1.95;;;18.40;58.60;;;;;;5042801;28;20130;-59
2022/08/13 10:05:27;;;;;;;;;;;18.50;57.90;;;;;;5044056;28;20080;-59
2022/08/13 10:08:05;;;;;;;2.17;2.00;;;18.50;57.30;;;;;;5043616;28;19927;-59
2022/08/13 10:10:33;;;;;;;2.25;2.08;;;18.40;57.20;;;;;;5045218;28;20052;-59
2022/08/13 10:13:02;;;;;;;2.00;1.90;;;18.40;57.20;;;;;;5044761;28;20083;-59
2022/08/13 10:15:30;;;;;;;2.20;1.98;;;18.40;57.30;;;;;;5044893;28;20386;-59
2022/08/13 10:18:02;;;;;;;2.23;2.03;;;18.40;58.20;;;;;;5045396;28;20581;-59
2022/08/13 10:20:45;;;;;;;2.17;1.98;;;18.40;58.20;;;;;;5047868;28;20343;-59
2022/08/13 10:23:15;;;;;;;1.85;1.75;;;18.50;57.70;;;;;;5047935;28;20049;-59
2022/08/13 10:25:44;;;;;;;2.30;2.15;;;18.50;57.70;;;;;;5049093;28;20052;-59
2022/08/13 10:28:25;;;;;;;1.95;1.85;;;18.50;58.30;;;;;;5047033;28;20053;-59
2022/08/13 10:30:56;;;;;;;2.50;1.90;;;18.50;57.70;;;;;;5047421;28;20571;-59
2022/08/13 10:33:43;;;;;;;1.92;1.83;;;18.50;57.60;;;;;;5043189;28;20107;-60
2022/08/13 10:36:14;;;;;;;2.25;2.10;;;18.50;57.30;;;;;;5048807;28;20045;-59
2022/08/13 10:38:41;;;;;;;2.30;2.10;;;18.50;58.10;;;;;;5048508;28;20091;-59
2022/08/13 10:41:19;;;;;;;2.03;1.92;;;18.50;57.90;;;;;;5048731;28;20052;-59
2022/08/13 10:43:47;;;;;;;1.85;1.75;;;18.50;57.30;;;;;;5047057;28;20486;-60
2022/08/13 10:46:25;;;;;;;2.08;1.88;;;18.50;57.00;;;;;;5048459;28;20394;-60
2022/08/13 10:48:55;;;;;;;2.60;2.40;;;18.50;57.00;;;;;;5048648;28;20139;-60
2022/08/13 10:51:31;;;;;;;2.28;2.08;;;18.50;57.20;;;;;;5048867;28;20424;-60
2022/08/13 10:54:10;;;;;;;2.50;2.30;;;18.50;57.90;;;;;;5048300;28;20049;-59
2022/08/13 10:56:58;;;;;;;2.67;2.28;;;18.50;58.50;;;;;;5048943;28;20132;-59
2022/08/13 10:59:26;;;;;;;2.20;2.10;;;18.60;57.80;;;;;;5048201;28;20048;-59
2022/08/13 11:01:53;;;;;;;2.50;2.17;;;18.60;57.50;;;;;;5046877;28;20549;-60
2022/08/13 11:04:20;;;;;;;2.25;2.05;;;18.70;57.30;;;;;;5043524;28;20501;-60
2022/08/13 11:06:58;;;;;;;2.58;2.38;;;18.70;57.00;;;;;;5048467;28;20457;-60
2022/08/13 11:09:30;;;;;;;2.63;2.38;;;18.70;56.60;;;;;;5048094;28;20048;-60
2022/08/13 11:12:05;;;;;;;2.28;2.08;;;18.70;56.70;;;;;;5048547;28;20224;-60
2022/08/13 11:14:34;;;;;;;2.05;1.95;;;18.70;57.80;;;;;;5048034;28;20077;-60
2022/08/13 11:17:09;;;;;;;2.22;1.98;;;18.70;58.00;;;;;;5048561;28;20053;-60
2022/08/13 11:19:57;;;;;;;2.45;2.25;;;18.70;57.30;;;;;;5047653;28;20654;-59
2022/08/13 11:22:33;;;;;;;2.10;1.92;;;18.70;57.30;;;;;;5048201;28;20049;-60
2022/08/13 11:25:03;;;;;;;2.88;2.33;;;18.70;57.50;;;;;;5047017;28;20049;-63
2022/08/13 11:27:50;;;;;;;2.42;1.90;;;18.80;57.20;;;;;;5048006;28;20390;-59
2022/08/13 11:30:20;;;;;;;2.30;2.10;;;18.80;57.30;;;;;;5047009;28;20045;-59
2022/08/13 11:33:04;;;;;;;3.40;2.17;;;18.80;57.40;;;;;;5047881;28;20504;-60
2022/08/13 11:35:41;;;;;;;2.13;2.00;;;18.80;56.80;;;;;;5046526;28;20490;-60
2022/08/13 11:38:18;;;;;;;2.60;2.40;;;18.80;57.20;;;;;;5044718;28;20044;-60
2022/08/13 11:40:49;;;;;;;2.45;2.25;;;18.80;57.40;;;;;;5047638;28;20182;-60
2022/08/13 11:43:20;;;;;;;2.33;2.10;;;18.90;57.40;;;;;;5047992;28;20051;-60
2022/08/13 11:45:49;;;;;;;2.22;2.13;;;18.90;57.00;;;;;;5046022;28;20053;-60
2022/08/13 11:48:19;;;;;;;2.17;1.98;;;18.90;56.90;;;;;;5047805;28;20060;-60
2022/08/13 11:51:02;;;;;;;2.53;2.30;;;18.90;56.90;;;;;;5047882;28;20048;-60
2022/08/13 11:53:32;;;;;;;3.10;2.30;;;18.90;57.30;;;;;;5047139;28;20049;-60
2022/08/13 11:56:19;;;;;;;2.40;2.20;;;18.90;57.00;;;;;;5047262;28;20081;-59
2022/08/13 11:58:51;;;;;;;2.40;2.20;;;18.90;57.00;;;;;;5047372;28;20566;-60
2022/08/13 12:01:22;;;;;;;2.42;2.22;;;18.90;57.00;;;;;;5047136;28;20060;-60
2022/08/13 12:03:53;;;;;;;2.30;2.10;;;18.90;57.30;;;;;;5047293;28;20051;-60
2022/08/13 12:06:41;;;;;;;2.10;2.00;;;18.90;57.80;;;;;;5046890;28;20041;-60
2022/08/13 12:09:18;;;;;;;2.40;2.20;;;19.00;57.60;;;;;;5042254;28;20049;-60
2022/08/13 12:12:06;;;;;;;2.67;2.45;;;19.00;57.60;;;;;;5047411;28;20079;-60
2022/08/13 12:14:38;;;;;;;2.50;2.30;;;19.00;57.20;;;;;;5047055;28;20050;-60
2022/08/13 12:17:06;;;;;;;2.47;2.22;;;19.10;57.30;;;;;;5047262;28;20521;-60
2022/08/13 12:19:34;;;;;;;2.80;2.60;;;19.10;57.30;;;;;;5046634;28;20110;-60
2022/08/13 12:22:02;;;;;;;2.35;2.15;;;19.10;57.50;;;;;;5046819;28;20068;-60
2022/08/13 12:24:29;;;;;;;2.72;2.53;;;19.10;57.30;;;;;;5047059;28;20497;-60
2022/08/13 12:27:00;;;;;;;3.22;2.88;;;19.10;57.50;;;;;;5045085;28;20055;-60
2022/08/13 12:29:31;;;;;;;2.45;2.25;;;19.10;57.50;;;;;;5046851;28;20057;-60
2022/08/13 12:32:14;;;;;;;2.55;2.40;;;19.10;57.30;;;;;;5046437;28;20131;-60
2022/08/13 12:34:45;;;;;;;2.80;2.58;;;19.10;57.60;;;;;;5046911;28;20095;-60
2022/08/13 12:37:23;;;;;;;2.63;2.42;;;19.20;57.80;;;;;;5046684;28;20045;-60
2022/08/13 12:39:56;;;;;;;2.70;2.08;;;19.20;57.80;;;;;;5041629;28;20056;-60
2022/08/13 12:42:25;;;;;;;2.60;2.40;;;19.20;57.80;;;;;;5045269;28;20080;-59
2022/08/13 12:44:56;;;;;;;2.47;2.35;;;19.20;58.20;;;;;;5046202;28;20337;-59
2022/08/13 12:47:44;;;;;;;2.47;2.35;;;19.30;58.30;;;;;;5045335;28;20110;-59
2022/08/13 12:50:19;;;;;;;2.75;2.30;;;19.30;58.40;;;;;;5046025;28;20454;-59
2022/08/13 12:52:49;;;;;;;2.30;2.13;;;19.40;58.20;;;;;;5046576;28;20103;-59
2022/08/13 12:55:17;;;;;;;3.47;2.35;;;19.40;58.20;;;;;;5045299;28;20253;-59
2022/08/13 12:58:15;;;;;;;2.70;2.25;;;19.40;58.20;;;;;;5046548;28;20298;-59
2022/08/13 13:00:48;;;;;;;2.40;2.28;;;19.40;57.70;;;;;;5045937;28;20057;-59
2022/08/13 13:03:16;;;;;;;2.60;2.40;;;19.40;57.90;;;;;;5045956;28;20049;-59
2022/08/13 13:05:45;;;;;;;2.13;2.03;;;19.40;58.20;;;;;;5045860;28;20053;-60
2022/08/13 13:08:26;;;;;;;2.38;2.10;;;19.40;57.90;;;;;;5046008;28;20049;-60
2022/08/13 13:11:06;;;;;;;2.30;2.10;;;19.40;58.00;;;;;;5041264;28;20103;-59
2022/08/13 13:13:42;;;;;;;2.47;2.28;;;19.40;57.70;;;;;;5046265;28;20124;-59
2022/08/13 13:16:26;;;;;;;4.82;2.17;;;19.50;57.70;;;;;;5030572;28;20049;-60
2022/08/13 13:19:10;;;;;;;2.20;2.10;;;19.50;57.50;;;;;;5045699;28;20049;-59
2022/08/13 13:21:44;;;;;;;2.50;2.30;;;19.50;57.60;;;;;;5045395;28;20486;-59
2022/08/13 13:24:13;;;;;;;2.53;2.30;;;19.50;57.60;;;;;;5045024;28;20099;-61
2022/08/13 13:26:47;;;;;;;3.30;1.95;;;19.60;57.60;;;;;;5045480;28;20045;-59
2022/08/13 13:29:36;;;;;;;2.83;1.95;;;19.60;57.40;;;;;;5045635;28;20512;-59
2022/08/13 13:32:13;;;;;;;2.42;2.25;;;19.60;57.40;;;;;;5044467;28;20053;-59
2022/08/13 13:35:04;;;;;;;2.42;2.25;;;19.60;57.50;;;;;;5045630;28;20191;-59
2022/08/13 13:37:52;;;;;;;3.03;2.38;;;19.60;57.50;;;;;;5044262;28;20135;-60
2022/08/13 13:40:39;;;;;;;3.03;2.38;;;19.60;57.50;;;;;;5045643;28;20140;-59
2022/08/13 13:43:12;;;;;;;2.42;2.22;;;19.60;57.60;;;;;;5040159;28;20497;-60
2022/08/13 13:45:56;;;;;;;2.25;2.15;;;19.70;57.80;;;;;;5045318;28;20103;-59
2022/08/13 13:48:32;;;;;;;2.10;2.00;;;19.70;58.10;;;;;;5045678;28;20118;-59
2022/08/13 13:51:04;;;;;;;2.30;2.20;;;19.80;58.00;;;;;;5044058;28;20447;-59
2022/08/13 13:53:33;;;;;;;2.13;2.03;;;19.80;58.40;;;;;;5045093;28;20041;-59
2022/08/13 13:56:20;;;;;;;2.15;2.05;;;19.90;59.00;;;;;;5045075;28;20045;-60